sensor_id;sensor_type;location;lat;lon;timestamp;pressure;altitude;pressure_sealevel;temperature;humidity
11347;BME280;5728;42.722;23.258;2022-12-10T00:01:27;94122.63;;;9.94;90.61
11347;BME280;5728;42.722;23.258;2022-12-10T00:03:54;94117.50;;;9.90;91.26
11347;BME280;5728;42.722;23.258;2022-12-10T00:06:24;94129.69;;;10.23;90.84
11347;BME280;5728;42.722;23.258;2022-12-10T00:08:52;94117.38;;;9.96;91.73
11347;BME280;5728;42.722;23.258;2022-12-10T00:11:21;94118.59;;;10.18;91.64
11347;BME280;5728;42.722;23.258;2022-12-10T00:13:49;94120.78;;;9.98;90.11
11347;BME280;5728;42.722;23.258;2022-12-10T00:16:18;94126.00;;;9.96;91.41
11347;BME280;5728;42.722;23.258;2022-12-10T00:18:45;94126.56;;;10.09;91.48
11347;BME280;5728;42.722;23.258;2022-12-10T00:21:14;94122.25;;;10.08;91.55
11347;BME280;5728;42.722;23.258;2022-12-10T00:23:43;94114.22;;;10.20;90.42
11347;BME280;5728;42.722;23.258;2022-12-10T00:26:12;94111.97;;;10.05;91.68
11347;BME280;5728;42.722;23.258;2022-12-10T00:28:39;94116.06;;;10.16;91.84
11347;BME280;5728;42.722;23.258;2022-12-10T00:31:08;94122.00;;;10.20;90.73
11347;BME280;5728;42.722;23.258;2022-12-10T00:33:36;94113.28;;;10.24;90.49
11347;BME280;5728;42.722;23.258;2022-12-10T00:36:04;94129.72;;;9.85;92.06
11347;BME280;5728;42.722;23.258;2022-12-10T00:38:31;94108.00;;;9.90;92.59
11347;BME280;5728;42.722;23.258;2022-12-10T00:40:59;94115.19;;;10.16;91.37
11347;BME280;5728;42.722;23.258;2022-12-10T00:43:26;94129.94;;;10.14;91.09
11347;BME280;5728;42.722;23.258;2022-12-10T00:45:53;94135.06;;;9.79;91.73
11347;BME280;5728;42.722;23.258;2022-12-10T00:48:20;94137.53;;;9.83;92.33
11347;BME280;5728;42.722;23.258;2022-12-10T00:50:55;94138.97;;;9.96;92.61
11347;BME280;5728;42.722;23.258;2022-12-10T00:53:23;94117.00;;;10.12;92.12
11347;BME280;5728;42.722;23.258;2022-12-10T00:55:50;94118.38;;;10.27;91.42
11347;BME280;5728;42.722;23.258;2022-12-10T00:58:18;94116.22;;;10.44;90.32
11347;BME280;5728;42.722;23.258;2022-12-10T01:00:45;94144.50;;;10.53;90.53
11347;BME280;5728;42.722;23.258;2022-12-10T01:03:11;94122.38;;;10.72;89.07
11347;BME280;5728;42.722;23.258;2022-12-10T01:05:38;94108.94;;;10.58;90.03
11347;BME280;5728;42.722;23.258;2022-12-10T01:08:05;94110.44;;;10.67;90.13
11347;BME280;5728;42.722;23.258;2022-12-10T01:10:32;94117.09;;;10.77;89.46
11347;BME280;5728;42.722;23.258;2022-12-10T01:12:59;94102.66;;;10.33;89.77
11347;BME280;5728;42.722;23.258;2022-12-10T01:15:27;94116.38;;;10.38;90.99
11347;BME280;5728;42.722;23.258;2022-12-10T01:17:53;94107.81;;;10.35;90.94
11347;BME280;5728;42.722;23.258;2022-12-10T01:20:20;94123.72;;;10.21;92.58
11347;BME280;5728;42.722;23.258;2022-12-10T01:22:47;94114.56;;;10.05;93.21
11347;BME280;5728;42.722;23.258;2022-12-10T01:25:14;94121.47;;;10.06;93.08
11347;BME280;5728;42.722;23.258;2022-12-10T01:27:40;94099.75;;;10.10;93.24
11347;BME280;5728;42.722;23.258;2022-12-10T01:30:08;94101.00;;;10.32;92.25
11347;BME280;5728;42.722;23.258;2022-12-10T01:32:37;94106.50;;;10.18;92.68
11347;BME280;5728;42.722;23.258;2022-12-10T01:35:04;94103.41;;;10.38;92.25
11347;BME280;5728;42.722;23.258;2022-12-10T01:37:31;94087.00;;;10.38;92.71
11347;BME280;5728;42.722;23.258;2022-12-10T01:39:57;94097.09;;;10.48;92.05
11347;BME280;5728;42.722;23.258;2022-12-10T01:42:24;94104.84;;;10.16;91.78
11347;BME280;5728;42.722;23.258;2022-12-10T01:45:04;94111.75;;;10.15;92.84
11347;BME280;5728;42.722;23.258;2022-12-10T01:47:33;94109.38;;;10.05;94.35
11347;BME280;5728;42.722;23.258;2022-12-10T01:50:02;94109.56;;;10.34;94.58
11347;BME280;5728;42.722;23.258;2022-12-10T01:52:29;94113.94;;;10.32;93.14
11347;BME280;5728;42.722;23.258;2022-12-10T01:54:56;94142.06;;;10.12;94.07
11347;BME280;5728;42.722;23.258;2022-12-10T01:57:25;94095.81;;;10.32;93.81
11347;BME280;5728;42.722;23.258;2022-12-10T01:59:54;94095.69;;;10.35;93.28
11347;BME280;5728;42.722;23.258;2022-12-10T02:02:29;94114.59;;;10.40;92.66
11347;BME280;5728;42.722;23.258;2022-12-10T02:05:19;94067.50;;;10.24;93.98
11347;BME280;5728;42.722;23.258;2022-12-10T02:08:00;94097.63;;;10.61;92.90
11347;BME280;5728;42.722;23.258;2022-12-10T02:10:42;94096.44;;;10.05;94.56
11347;BME280;5728;42.722;23.258;2022-12-10T02:13:12;94090.25;;;10.10;95.06
11347;BME280;5728;42.722;23.258;2022-12-10T02:15:48;94080.34;;;10.29;95.21
11347;BME280;5728;42.722;23.258;2022-12-10T02:18:19;94066.78;;;10.18;94.97
11347;BME280;5728;42.722;23.258;2022-12-10T02:20:51;94075.06;;;10.32;95.49
11347;BME280;5728;42.722;23.258;2022-12-10T02:23:24;94074.97;;;10.35;95.28
11347;BME280;5728;42.722;23.258;2022-12-10T02:25:59;94073.50;;;10.27;95.10
11347;BME280;5728;42.722;23.258;2022-12-10T02:28:36;94086.38;;;10.28;94.62
11347;BME280;5728;42.722;23.258;2022-12-10T02:31:07;94070.19;;;10.20;94.86
11347;BME280;5728;42.722;23.258;2022-12-10T02:33:39;94069.47;;;10.47;95.22
11347;BME280;5728;42.722;23.258;2022-12-10T02:36:09;94061.13;;;10.36;95.42
11347;BME280;5728;42.722;23.258;2022-12-10T02:38:38;94067.38;;;10.61;93.81
11347;BME280;5728;42.722;23.258;2022-12-10T02:41:08;94070.38;;;10.46;95.07
11347;BME280;5728;42.722;23.258;2022-12-10T02:43:39;94060.16;;;10.40;95.84
11347;BME280;5728;42.722;23.258;2022-12-10T02:46:07;94062.53;;;10.49;95.88
11347;BME280;5728;42.722;23.258;2022-12-10T02:48:36;94081.56;;;10.48;95.48
11347;BME280;5728;42.722;23.258;2022-12-10T02:51:03;94041.78;;;10.49;93.83
11347;BME280;5728;42.722;23.258;2022-12-10T02:53:30;94047.81;;;10.50;94.31
11347;BME280;5728;42.722;23.258;2022-12-10T02:56:08;94064.81;;;10.60;94.87
11347;BME280;5728;42.722;23.258;2022-12-10T02:58:44;94052.56;;;10.65;94.11
11347;BME280;5728;42.722;23.258;2022-12-10T03:01:26;94071.03;;;10.54;94.56
11347;BME280;5728;42.722;23.258;2022-12-10T03:04:01;94053.31;;;10.38;95.09
11347;BME280;5728;42.722;23.258;2022-12-10T03:06:33;94060.41;;;10.63;95.64
11347;BME280;5728;42.722;23.258;2022-12-10T03:09:05;94053.63;;;10.25;94.49
11347;BME280;5728;42.722;23.258;2022-12-10T03:11:34;94057.75;;;10.34;95.92
11347;BME280;5728;42.722;23.258;2022-12-10T03:14:05;94057.00;;;10.61;95.46
11347;BME280;5728;42.722;23.258;2022-12-10T03:16:36;94055.88;;;10.70;95.49
11347;BME280;5728;42.722;23.258;2022-12-10T03:19:07;94047.75;;;10.83;95.24
11347;BME280;5728;42.722;23.258;2022-12-10T03:21:38;94046.13;;;10.79;95.67
11347;BME280;5728;42.722;23.258;2022-12-10T03:24:06;94036.91;;;10.69;95.89
11347;BME280;5728;42.722;23.258;2022-12-10T03:26:33;94038.53;;;10.73;95.92
11347;BME280;5728;42.722;23.258;2022-12-10T03:29:06;94029.31;;;10.93;95.10
11347;BME280;5728;42.722;23.258;2022-12-10T03:31:37;94038.16;;;10.85;94.94
11347;BME280;5728;42.722;23.258;2022-12-10T03:34:05;94050.41;;;10.80;96.54
11347;BME280;5728;42.722;23.258;2022-12-10T03:36:33;94055.38;;;10.88;95.64
11347;BME280;5728;42.722;23.258;2022-12-10T03:39:00;94039.53;;;10.68;96.96
11347;BME280;5728;42.722;23.258;2022-12-10T03:41:27;94046.00;;;10.84;96.99
11347;BME280;5728;42.722;23.258;2022-12-10T03:43:55;94030.72;;;11.04;95.69
11347;BME280;5728;42.722;23.258;2022-12-10T03:46:23;94029.13;;;10.69;98.00
11347;BME280;5728;42.722;23.258;2022-12-10T03:48:52;94020.06;;;10.53;99.33
11347;BME280;5728;42.722;23.258;2022-12-10T03:51:19;94023.53;;;10.52;100.00
11347;BME280;5728;42.722;23.258;2022-12-10T03:53:46;94024.44;;;10.51;100.00
11347;BME280;5728;42.722;23.258;2022-12-10T03:56:15;94034.81;;;10.51;100.00
11347;BME280;5728;42.722;23.258;2022-12-10T03:58:42;94022.91;;;10.44;100.00
11347;BME280;5728;42.722;23.258;2022-12-10T04:01:08;94041.38;;;10.64;100.00
11347;BME280;5728;42.722;23.258;2022-12-10T04:03:36;94040.72;;;10.56;100.00
11347;BME280;5728;42.722;23.258;2022-12-10T04:06:06;94032.75;;;10.62;100.00
11347;BME280;5728;42.722;23.258;2022-12-10T04:08:33;94046.50;;;10.66;100.00
11347;BME280;5728;42.722;23.258;2022-12-10T04:11:04;94052.22;;;10.46;100.00
11347;BME280;5728;42.722;23.258;2022-12-10T04:13:32;94036.69;;;10.46;100.00
11347;BME280;5728;42.722;23.258;2022-12-10T04:16:16;94040.75;;;10.55;100.00
11347;BME280;5728;42.722;23.258;2022-12-10T04:18:57;94050.09;;;10.60;100.00
11347;BME280;5728;42.722;23.258;2022-12-10T04:21:26;94068.00;;;10.37;100.00
11347;BME280;5728;42.722;23.258;2022-12-10T04:24:11;94043.72;;;10.41;100.00
11347;BME280;5728;42.722;23.258;2022-12-10T04:26:56;94015.53;;;10.61;100.00
11347;BME280;5728;42.722;23.258;2022-12-10T04:29:25;94039.88;;;10.56;100.00
11347;BME280;5728;42.722;23.258;2022-12-10T04:31:53;94043.69;;;10.73;100.00
11347;BME280;5728;42.722;23.258;2022-12-10T04:34:20;94020.63;;;10.64;100.00
11347;BME280;5728;42.722;23.258;2022-12-10T04:36:48;94027.06;;;10.82;100.00
11347;BME280;5728;42.722;23.258;2022-12-10T04:39:16;94045.78;;;10.92;100.00
11347;BME280;5728;42.722;23.258;2022-12-10T04:41:45;94036.50;;;10.83;100.00
11347;BME280;5728;42.722;23.258;2022-12-10T04:44:12;94027.34;;;11.02;100.00
11347;BME280;5728;42.722;23.258;2022-12-10T04:46:39;94033.97;;;11.11;100.00
11347;BME280;5728;42.722;23.258;2022-12-10T04:49:06;94035.06;;;11.04;100.00
11347;BME280;5728;42.722;23.258;2022-12-10T04:51:33;94037.63;;;10.74;100.00
11347;BME280;5728;42.722;23.258;2022-12-10T04:54:01;94034.00;;;10.80;100.00
11347;BME280;5728;42.722;23.258;2022-12-10T04:56:28;94040.75;;;10.85;100.00
11347;BME280;5728;42.722;23.258;2022-12-10T04:58:55;94048.44;;;10.59;100.00
11347;BME280;5728;42.722;23.258;2022-12-10T05:01:23;94032.75;;;10.62;100.00
11347;BME280;5728;42.722;23.258;2022-12-10T05:03:50;94030.44;;;10.84;100.00
11347;BME280;5728;42.722;23.258;2022-12-10T05:06:18;94035.34;;;10.62;100.00
11347;BME280;5728;42.722;23.258;2022-12-10T05:08:45;94038.94;;;10.58;100.00
11347;BME280;5728;42.722;23.258;2022-12-10T05:11:15;94037.78;;;10.68;100.00
11347;BME280;5728;42.722;23.258;2022-12-10T05:13:43;94031.16;;;10.58;100.00
11347;BME280;5728;42.722;23.258;2022-12-10T05:16:11;94021.03;;;10.80;100.00
11347;BME280;5728;42.722;23.258;2022-12-10T05:18:38;94016.09;;;11.02;100.00
11347;BME280;5728;42.722;23.258;2022-12-10T05:21:07;94029.06;;;11.02;100.00
11347;BME280;5728;42.722;23.258;2022-12-10T05:23:36;94030.72;;;11.04;100.00
11347;BME280;5728;42.722;23.258;2022-12-10T05:26:04;94022.94;;;11.04;100.00
11347;BME280;5728;42.722;23.258;2022-12-10T05:28:34;94030.53;;;11.10;100.00
11347;BME280;5728;42.722;23.258;2022-12-10T05:31:01;94016.53;;;11.16;100.00
11347;BME280;5728;42.722;23.258;2022-12-10T05:33:28;94020.22;;;11.09;100.00
11347;BME280;5728;42.722;23.258;2022-12-10T05:35:57;94027.09;;;11.10;100.00
11347;BME280;5728;42.722;23.258;2022-12-10T05:38:25;94015.91;;;11.08;100.00
11347;BME280;5728;42.722;23.258;2022-12-10T05:40:53;94032.47;;;10.73;100.00
11347;BME280;5728;42.722;23.258;2022-12-10T05:43:20;94047.81;;;10.80;100.00
11347;BME280;5728;42.722;23.258;2022-12-10T05:45:48;94041.63;;;10.86;100.00
11347;BME280;5728;42.722;23.258;2022-12-10T05:48:15;94034.56;;;10.30;100.00
11347;BME280;5728;42.722;23.258;2022-12-10T05:50:42;94040.59;;;10.61;100.00
11347;BME280;5728;42.722;23.258;2022-12-10T05:53:09;94042.84;;;10.73;100.00
11347;BME280;5728;42.722;23.258;2022-12-10T05:55:39;94033.69;;;10.90;100.00
11347;BME280;5728;42.722;23.258;2022-12-10T05:58:06;94048.25;;;10.65;100.00
11347;BME280;5728;42.722;23.258;2022-12-10T06:00:32;94050.38;;;10.51;100.00
11347;BME280;5728;42.722;23.258;2022-12-10T06:03:01;94044.78;;;10.66;100.00
11347;BME280;5728;42.722;23.258;2022-12-10T06:05:27;94054.97;;;10.72;100.00
11347;BME280;5728;42.722;23.258;2022-12-10T06:07:54;94046.53;;;10.95;100.00
11347;BME280;5728;42.722;23.258;2022-12-10T06:10:21;94052.34;;;11.05;100.00
11347;BME280;5728;42.722;23.258;2022-12-10T06:12:48;94050.31;;;11.14;100.00
11347;BME280;5728;42.722;23.258;2022-12-10T06:15:14;94034.13;;;11.06;100.00
11347;BME280;5728;42.722;23.258;2022-12-10T06:17:41;94047.59;;;11.19;100.00
11347;BME280;5728;42.722;23.258;2022-12-10T06:20:10;94049.03;;;11.00;100.00
11347;BME280;5728;42.722;23.258;2022-12-10T06:22:37;94049.53;;;10.81;100.00
11347;BME280;5728;42.722;23.258;2022-12-10T06:25:04;94043.91;;;10.97;100.00
11347;BME280;5728;42.722;23.258;2022-12-10T06:27:32;93995.03;;;10.83;100.00
11347;BME280;5728;42.722;23.258;2022-12-10T06:29:59;94021.00;;;11.11;100.00
11347;BME280;5728;42.722;23.258;2022-12-10T06:32:26;94022.59;;;10.85;100.00
11347;BME280;5728;42.722;23.258;2022-12-10T06:34:53;94008.41;;;10.99;100.00
11347;BME280;5728;42.722;23.258;2022-12-10T06:37:21;94018.59;;;11.34;100.00
11347;BME280;5728;42.722;23.258;2022-12-10T06:39:50;94036.03;;;11.29;100.00
11347;BME280;5728;42.722;23.258;2022-12-10T06:42:17;94031.59;;;11.05;100.00
11347;BME280;5728;42.722;23.258;2022-12-10T06:44:43;94030.53;;;11.10;100.00
11347;BME280;5728;42.722;23.258;2022-12-10T06:47:10;94048.31;;;10.93;100.00
11347;BME280;5728;42.722;23.258;2022-12-10T06:49:37;94046.88;;;11.14;100.00
11347;BME280;5728;42.722;23.258;2022-12-10T06:52:04;94061.69;;;11.38;100.00
11347;BME280;5728;42.722;23.258;2022-12-10T06:54:32;94063.66;;;11.59;100.00
11347;BME280;5728;42.722;23.258;2022-12-10T06:56:59;94052.13;;;11.11;100.00
11347;BME280;5728;42.722;23.258;2022-12-10T06:59:26;94052.97;;;11.40;100.00
11347;BME280;5728;42.722;23.258;2022-12-10T07:01:53;94026.78;;;11.48;100.00
11347;BME280;5728;42.722;23.258;2022-12-10T07:04:19;94060.38;;;11.54;100.00
11347;BME280;5728;42.722;23.258;2022-12-10T07:06:46;94049.81;;;11.60;100.00
11347;BME280;5728;42.722;23.258;2022-12-10T07:09:13;94056.34;;;11.99;100.00
11347;BME280;5728;42.722;23.258;2022-12-10T07:11:41;94055.03;;;11.86;100.00
11347;BME280;5728;42.722;23.258;2022-12-10T07:14:12;94060.25;;;12.12;100.00
11347;BME280;5728;42.722;23.258;2022-12-10T07:16:40;94065.91;;;11.71;100.00
11347;BME280;5728;42.722;23.258;2022-12-10T07:19:09;94045.66;;;11.53;100.00
11347;BME280;5728;42.722;23.258;2022-12-10T07:21:37;94042.34;;;11.77;100.00
11347;BME280;5728;42.722;23.258;2022-12-10T07:24:07;94046.78;;;11.74;100.00
11347;BME280;5728;42.722;23.258;2022-12-10T07:26:35;94032.59;;;11.85;100.00
11347;BME280;5728;42.722;23.258;2022-12-10T07:29:05;94032.19;;;11.97;100.00
11347;BME280;5728;42.722;23.258;2022-12-10T07:31:33;94014.97;;;11.93;100.00
11347;BME280;5728;42.722;23.258;2022-12-10T07:34:00;94026.06;;;11.72;100.00
11347;BME280;5728;42.722;23.258;2022-12-10T07:36:28;94043.13;;;11.51;100.00
11347;BME280;5728;42.722;23.258;2022-12-10T07:38:54;94036.81;;;11.32;100.00
11347;BME280;5728;42.722;23.258;2022-12-10T07:41:22;94030.00;;;11.56;100.00
11347;BME280;5728;42.722;23.258;2022-12-10T07:43:49;94018.19;;;11.46;100.00
11347;BME280;5728;42.722;23.258;2022-12-10T07:46:19;94033.38;;;11.87;99.96
11347;BME280;5728;42.722;23.258;2022-12-10T07:48:47;94034.81;;;11.96;100.00
11347;BME280;5728;42.722;23.258;2022-12-10T07:51:16;94028.47;;;12.04;100.00
11347;BME280;5728;42.722;23.258;2022-12-10T07:53:43;94029.97;;;12.11;98.30
11347;BME280;5728;42.722;23.258;2022-12-10T07:56:10;94026.38;;;12.15;97.73
11347;BME280;5728;42.722;23.258;2022-12-10T07:58:40;94019.97;;;11.99;98.07
11347;BME280;5728;42.722;23.258;2022-12-10T08:01:08;94019.88;;;12.02;99.04
11347;BME280;5728;42.722;23.258;2022-12-10T08:03:37;94018.94;;;12.05;99.13
11347;BME280;5728;42.722;23.258;2022-12-10T08:06:05;94005.19;;;12.28;98.77
11347;BME280;5728;42.722;23.258;2022-12-10T08:08:33;94015.06;;;12.16;97.75
11347;BME280;5728;42.722;23.258;2022-12-10T08:11:01;94007.69;;;12.04;98.87
11347;BME280;5728;42.722;23.258;2022-12-10T08:13:28;94003.78;;;12.18;98.68
11347;BME280;5728;42.722;23.258;2022-12-10T08:16:00;94003.09;;;12.37;99.26
11347;BME280;5728;42.722;23.258;2022-12-10T08:18:28;93994.78;;;12.52;97.53
11347;BME280;5728;42.722;23.258;2022-12-10T08:20:57;94004.66;;;12.43;97.37
11347;BME280;5728;42.722;23.258;2022-12-10T08:23:24;94005.94;;;12.56;97.61
11347;BME280;5728;42.722;23.258;2022-12-10T08:25:50;94002.88;;;12.68;97.67
11347;BME280;5728;42.722;23.258;2022-12-10T08:28:17;93996.63;;;12.49;97.83
11347;BME280;5728;42.722;23.258;2022-12-10T08:30:45;93998.88;;;12.82;96.63
11347;BME280;5728;42.722;23.258;2022-12-10T08:33:12;93995.09;;;12.68;97.78
11347;BME280;5728;42.722;23.258;2022-12-10T08:35:39;93991.78;;;12.63;98.02
11347;BME280;5728;42.722;23.258;2022-12-10T08:38:07;93998.91;;;12.58;99.05
11347;BME280;5728;42.722;23.258;2022-12-10T08:40:38;93988.13;;;12.92;97.81
11347;BME280;5728;42.722;23.258;2022-12-10T08:43:05;93988.75;;;12.98;97.18
11347;BME280;5728;42.722;23.258;2022-12-10T08:45:32;93997.22;;;12.80;98.91
11347;BME280;5728;42.722;23.258;2022-12-10T08:47:59;94004.34;;;12.75;97.88
11347;BME280;5728;42.722;23.258;2022-12-10T08:50:27;93995.88;;;12.93;96.99
11347;BME280;5728;42.722;23.258;2022-12-10T08:52:54;93983.00;;;13.13;97.24
11347;BME280;5728;42.722;23.258;2022-12-10T08:55:22;93985.41;;;12.71;99.32
11347;BME280;5728;42.722;23.258;2022-12-10T08:57:49;93980.44;;;12.65;99.76
11347;BME280;5728;42.722;23.258;2022-12-10T09:00:16;93970.75;;;12.92;98.38
11347;BME280;5728;42.722;23.258;2022-12-10T09:02:44;93968.84;;;13.20;96.98
11347;BME280;5728;42.722;23.258;2022-12-10T09:05:11;93947.69;;;13.51;96.18
11347;BME280;5728;42.722;23.258;2022-12-10T09:07:38;93953.38;;;13.61;94.87
11347;BME280;5728;42.722;23.258;2022-12-10T09:10:05;93950.06;;;13.77;93.35
11347;BME280;5728;42.722;23.258;2022-12-10T09:12:34;93953.03;;;13.90;93.37
11347;BME280;5728;42.722;23.258;2022-12-10T09:15:00;93946.78;;;13.94;92.71
11347;BME280;5728;42.722;23.258;2022-12-10T09:17:27;93967.94;;;14.28;92.17
11347;BME280;5728;42.722;23.258;2022-12-10T09:19:54;93963.78;;;14.44;90.28
11347;BME280;5728;42.722;23.258;2022-12-10T09:22:21;93954.06;;;14.48;89.91
11347;BME280;5728;42.722;23.258;2022-12-10T09:24:48;93951.78;;;14.40;88.79
11347;BME280;5728;42.722;23.258;2022-12-10T09:27:14;93980.31;;;14.23;89.92
11347;BME280;5728;42.722;23.258;2022-12-10T09:29:42;93932.75;;;14.38;89.94
11347;BME280;5728;42.722;23.258;2022-12-10T09:32:09;93930.97;;;14.59;89.23
11347;BME280;5728;42.722;23.258;2022-12-10T09:34:36;93934.44;;;14.39;88.77
11347;BME280;5728;42.722;23.258;2022-12-10T09:37:02;93934.69;;;14.53;88.90
11347;BME280;5728;42.722;23.258;2022-12-10T09:39:29;93923.16;;;14.39;88.88
11347;BME280;5728;42.722;23.258;2022-12-10T09:42:07;93907.88;;;14.70;88.28
11347;BME280;5728;42.722;23.258;2022-12-10T09:44:50;93918.97;;;15.12;87.12
11347;BME280;5728;42.722;23.258;2022-12-10T09:47:24;93901.50;;;15.50;85.53
11347;BME280;5728;42.722;23.258;2022-12-10T09:50:01;93917.59;;;15.60;83.96
11347;BME280;5728;42.722;23.258;2022-12-10T09:52:34;93903.25;;;15.85;82.92
11347;BME280;5728;42.722;23.258;2022-12-10T09:55:05;93898.09;;;16.35;81.38
11347;BME280;5728;42.722;23.258;2022-12-10T09:57:37;93914.00;;;16.65;80.83
11347;BME280;5728;42.722;23.258;2022-12-10T10:00:19;93892.97;;;16.67;78.66
11347;BME280;5728;42.722;23.258;2022-12-10T10:02:46;93889.53;;;16.66;78.96
11347;BME280;5728;42.722;23.258;2022-12-10T10:05:20;93902.38;;;16.71;78.67
11347;BME280;5728;42.722;23.258;2022-12-10T10:07:50;93899.38;;;16.94;77.77
11347;BME280;5728;42.722;23.258;2022-12-10T10:10:22;93881.38;;;17.03;76.20
11347;BME280;5728;42.722;23.258;2022-12-10T10:12:51;93898.13;;;17.16;76.72
11347;BME280;5728;42.722;23.258;2022-12-10T10:15:25;93891.94;;;17.17;76.38
11347;BME280;5728;42.722;23.258;2022-12-10T10:17:53;93884.25;;;17.14;76.10
11347;BME280;5728;42.722;23.258;2022-12-10T10:20:21;93868.13;;;17.06;76.04
11347;BME280;5728;42.722;23.258;2022-12-10T10:22:48;93866.34;;;17.22;75.85
11347;BME280;5728;42.722;23.258;2022-12-10T10:25:16;93870.31;;;17.30;75.74
11347;BME280;5728;42.722;23.258;2022-12-10T10:27:44;93864.91;;;17.01;76.45
11347;BME280;5728;42.722;23.258;2022-12-10T10:30:14;93859.75;;;17.00;76.30
11347;BME280;5728;42.722;23.258;2022-12-10T10:32:48;93847.66;;;16.97;77.09
11347;BME280;5728;42.722;23.258;2022-12-10T10:35:23;93843.53;;;17.09;76.65
11347;BME280;5728;42.722;23.258;2022-12-10T10:37:50;93837.75;;;16.38;78.63
11347;BME280;5728;42.722;23.258;2022-12-10T10:40:23;93834.91;;;16.76;79.24
11347;BME280;5728;42.722;23.258;2022-12-10T10:42:52;93825.63;;;17.01;76.88
11347;BME280;5728;42.722;23.258;2022-12-10T10:45:35;93838.78;;;17.00;76.16
11347;BME280;5728;42.722;23.258;2022-12-10T10:48:07;93834.41;;;17.00;76.40
11347;BME280;5728;42.722;23.258;2022-12-10T10:50:40;93828.91;;;16.74;76.41
11347;BME280;5728;42.722;23.258;2022-12-10T10:53:28;93834.91;;;16.76;77.46
11347;BME280;5728;42.722;23.258;2022-12-10T10:55:59;93842.53;;;16.96;76.25
11347;BME280;5728;42.722;23.258;2022-12-10T10:58:27;93842.00;;;17.05;76.98
11347;BME280;5728;42.722;23.258;2022-12-10T11:00:57;93832.22;;;17.08;76.18
11347;BME280;5728;42.722;23.258;2022-12-10T11:03:26;93811.00;;;17.13;75.23
11347;BME280;5728;42.722;23.258;2022-12-10T11:05:56;93822.97;;;17.33;75.47
11347;BME280;5728;42.722;23.258;2022-12-10T11:08:25;93815.13;;;17.33;75.65
11347;BME280;5728;42.722;23.258;2022-12-10T11:10:58;93804.16;;;17.10;75.97
11347;BME280;5728;42.722;23.258;2022-12-10T11:13:28;93788.28;;;17.13;75.55
11347;BME280;5728;42.722;23.258;2022-12-10T11:15:58;93783.53;;;17.20;75.76
11347;BME280;5728;42.722;23.258;2022-12-10T11:18:31;93775.00;;;17.16;75.06
11347;BME280;5728;42.722;23.258;2022-12-10T11:21:01;93772.84;;;17.39;74.94
11347;BME280;5728;42.722;23.258;2022-12-10T11:23:29;93758.38;;;16.86;76.22
11347;BME280;5728;42.722;23.258;2022-12-10T11:26:08;93776.28;;;16.78;77.26
11347;BME280;5728;42.722;23.258;2022-12-10T11:28:47;93773.25;;;16.70;76.84
11347;BME280;5728;42.722;23.258;2022-12-10T11:31:30;93770.97;;;16.95;76.60
11347;BME280;5728;42.722;23.258;2022-12-10T11:34:05;93757.59;;;17.15;76.04
11347;BME280;5728;42.722;23.258;2022-12-10T11:36:38;93770.69;;;16.84;76.55
11347;BME280;5728;42.722;23.258;2022-12-10T11:39:20;93782.72;;;17.04;75.75
11347;BME280;5728;42.722;23.258;2022-12-10T11:41:57;93768.34;;;16.95;75.54
11347;BME280;5728;42.722;23.258;2022-12-10T11:44:32;93765.97;;;17.06;75.50
11347;BME280;5728;42.722;23.258;2022-12-10T11:47:24;93777.91;;;16.96;75.29
11347;BME280;5728;42.722;23.258;2022-12-10T11:50:07;93775.34;;;17.10;76.10
11347;BME280;5728;42.722;23.258;2022-12-10T11:52:48;93750.16;;;17.23;75.62
11347;BME280;5728;42.722;23.258;2022-12-10T11:55:26;93750.47;;;17.17;74.98
11347;BME280;5728;42.722;23.258;2022-12-10T11:58:08;93740.59;;;17.22;74.32
11347;BME280;5728;42.722;23.258;2022-12-10T12:00:44;93736.38;;;17.20;75.49
11347;BME280;5728;42.722;23.258;2022-12-10T12:03:38;93740.28;;;17.43;75.37
11347;BME280;5728;42.722;23.258;2022-12-10T12:06:26;93736.97;;;17.55;74.96
11347;BME280;5728;42.722;23.258;2022-12-10T12:09:01;93731.09;;;17.36;74.94
11347;BME280;5728;42.722;23.258;2022-12-10T12:11:46;93727.56;;;17.37;75.82
11347;BME280;5728;42.722;23.258;2022-12-10T12:14:22;93729.25;;;17.22;76.22
11347;BME280;5728;42.722;23.258;2022-12-10T12:16:58;93713.16;;;17.44;75.64
11347;BME280;5728;42.722;23.258;2022-12-10T12:19:33;93705.47;;;17.11;76.42
11347;BME280;5728;42.722;23.258;2022-12-10T12:22:08;93690.66;;;16.80;77.78
11347;BME280;5728;42.722;23.258;2022-12-10T12:24:38;93690.91;;;16.91;77.44
11347;BME280;5728;42.722;23.258;2022-12-10T12:27:11;93697.03;;;17.06;77.47
11347;BME280;5728;42.722;23.258;2022-12-10T12:29:43;93697.19;;;17.03;77.07
11347;BME280;5728;42.722;23.258;2022-12-10T12:32:17;93692.63;;;17.06;77.43
11347;BME280;5728;42.722;23.258;2022-12-10T12:34:50;93665.47;;;16.93;77.22
11347;BME280;5728;42.722;23.258;2022-12-10T12:37:23;93664.19;;;16.85;77.83
11347;BME280;5728;42.722;23.258;2022-12-10T12:39:59;93655.78;;;16.33;79.77
11347;BME280;5728;42.722;23.258;2022-12-10T12:42:31;93649.53;;;16.51;79.35
11347;BME280;5728;42.722;23.258;2022-12-10T12:45:10;93662.09;;;16.29;80.23
11347;BME280;5728;42.722;23.258;2022-12-10T12:47:43;93658.66;;;16.13;80.95
11347;BME280;5728;42.722;23.258;2022-12-10T12:50:24;93656.94;;;16.12;80.73
11347;BME280;5728;42.722;23.258;2022-12-10T12:52:55;93659.25;;;16.18;81.49
11347;BME280;5728;42.722;23.258;2022-12-10T12:55:29;93657.91;;;16.11;80.76
11347;BME280;5728;42.722;23.258;2022-12-10T12:58:11;93667.31;;;15.98;81.32
11347;BME280;5728;42.722;23.258;2022-12-10T13:00:43;93655.97;;;15.81;82.06
11347;BME280;5728;42.722;23.258;2022-12-10T13:03:32;93652.91;;;15.58;82.99
11347;BME280;5728;42.722;23.258;2022-12-10T13:06:12;93647.44;;;15.62;82.29
11347;BME280;5728;42.722;23.258;2022-12-10T13:08:45;93649.63;;;15.03;85.13
11347;BME280;5728;42.722;23.258;2022-12-10T13:11:18;93644.28;;;15.56;83.68
11347;BME280;5728;42.722;23.258;2022-12-10T13:16:49;93644.59;;;15.82;82.32